Airfield :
LOGIN :

Register | Disclaimer

   EN    FR    IT 

 










Legend :    VFR   Marginal VFR   IFR   Intensive IFR   Very Intensive IFR
Visi :
Ceiling :
>= 8 km
>= 3000ft
5 to 8 km
1000 to 3000 ft
1500m to 5 km
500 to 1000 ft
800 to 1500m
200 to 500 ft
< 800m
< 200 ft
Symbols :   Thunderstorms  Fog  Heavy snow  Heavy precipitations  Wind > 20 kt
SIGMETs :     Misc.  Thunderstorms  Icing  Turbulence  Mountain Waves  Volcanic Ashes







- Airport Elevation : 10 ft
- IATA code : AAL


EKYT - Aalborg

CURRENT METAR :
  • 240620Z AUTO 27007KT 9999NDV FEW200/// 16/13 Q1015

EXPIRED METARs :
  • 240550Z AUTO 25008KT 9999NDV NCD 15/13 Q1015
  • 240520Z AUTO 25008KT 9999NDV NCD 15/13 Q1015
  • 240450Z AUTO 26008KT 9999NDV NCD 14/12 Q1015
  • 240420Z AUTO 25008KT 9999NDV NCD 13/12 Q1014
  • 240350Z AUTO 25006KT 9999NDV NCD 12/12 Q1014

TAF TAF EKYT
Valid from the 24 at 06:00 until the 25 at 06:00 UTC


240521Z 2406/2506 25010KT 9999 FEW030 SCT200
BECMG 2408/2411 32010KT
No reported NOTAMs for that airfield.



MET'MAP, your aeronautical weather chart ! - Copyright ORBIFLY December 2007 - Disclaimer

ORBIFLY MET'MAP TEAM :

Programming & Development : Alexandra Zaïnal
Concept & Development : Baudouin d'Aumeries
Co-Development & Prog : Marc-Olivier Méhu
Technical & hardware support : Manuel Goepfert

Contact : metmap@orbifly.com




SOURCES & CREDITS :

   NOAA